sensor_id;sensor_type;location;lat;lon;timestamp;P1;durP1;ratioP1;P2;durP2;ratioP2
41233;SDS011;26968;42.686;23.352;2023-01-13T00:02:06;14.27;;;8.13;;
41233;SDS011;26968;42.686;23.352;2023-01-13T00:04:32;17.50;;;9.77;;
41233;SDS011;26968;42.686;23.352;2023-01-13T00:06:58;15.13;;;8.40;;
41233;SDS011;26968;42.686;23.352;2023-01-13T00:09:23;14.68;;;8.82;;
41233;SDS011;26968;42.686;23.352;2023-01-13T00:11:49;15.15;;;9.05;;
41233;SDS011;26968;42.686;23.352;2023-01-13T00:14:15;11.70;;;7.32;;
41233;SDS011;26968;42.686;23.352;2023-01-13T00:16:42;13.90;;;7.78;;
41233;SDS011;26968;42.686;23.352;2023-01-13T00:19:07;14.95;;;8.43;;
41233;SDS011;26968;42.686;23.352;2023-01-13T00:21:33;12.68;;;8.38;;
41233;SDS011;26968;42.686;23.352;2023-01-13T00:23:58;15.10;;;8.52;;
41233;SDS011;26968;42.686;23.352;2023-01-13T00:26:25;14.80;;;8.90;;
41233;SDS011;26968;42.686;23.352;2023-01-13T00:28:55;13.57;;;8.30;;
41233;SDS011;26968;42.686;23.352;2023-01-13T00:31:22;15.05;;;8.77;;
41233;SDS011;26968;42.686;23.352;2023-01-13T00:33:48;16.35;;;8.65;;
41233;SDS011;26968;42.686;23.352;2023-01-13T00:36:15;12.68;;;7.70;;
41233;SDS011;26968;42.686;23.352;2023-01-13T00:38:41;14.73;;;8.85;;
41233;SDS011;26968;42.686;23.352;2023-01-13T00:41:08;14.27;;;8.18;;
41233;SDS011;26968;42.686;23.352;2023-01-13T00:43:38;13.93;;;8.38;;
41233;SDS011;26968;42.686;23.352;2023-01-13T00:46:04;14.90;;;8.20;;
41233;SDS011;26968;42.686;23.352;2023-01-13T00:48:31;18.08;;;9.85;;
41233;SDS011;26968;42.686;23.352;2023-01-13T00:51:05;13.48;;;8.73;;
41233;SDS011;26968;42.686;23.352;2023-01-13T00:53:33;15.32;;;9.23;;
41233;SDS011;26968;42.686;23.352;2023-01-13T00:58:34;18.65;;;10.38;;
41233;SDS011;26968;42.686;23.352;2023-01-13T01:01:04;20.58;;;11.15;;
41233;SDS011;26968;42.686;23.352;2023-01-13T01:03:34;28.00;;;12.00;;
41233;SDS011;26968;42.686;23.352;2023-01-13T01:06:04;19.50;;;11.15;;
41233;SDS011;26968;42.686;23.352;2023-01-13T01:08:43;16.05;;;9.93;;
41233;SDS011;26968;42.686;23.352;2023-01-13T01:11:09;18.60;;;10.43;;
41233;SDS011;26968;42.686;23.352;2023-01-13T01:13:40;18.15;;;9.10;;
41233;SDS011;26968;42.686;23.352;2023-01-13T01:16:10;19.17;;;10.40;;
41233;SDS011;26968;42.686;23.352;2023-01-13T01:21:04;17.67;;;10.32;;
41233;SDS011;26968;42.686;23.352;2023-01-13T01:23:32;14.55;;;9.18;;
41233;SDS011;26968;42.686;23.352;2023-01-13T01:26:03;16.90;;;9.68;;
41233;SDS011;26968;42.686;23.352;2023-01-13T01:28:30;17.38;;;10.48;;
41233;SDS011;26968;42.686;23.352;2023-01-13T01:30:57;14.93;;;8.93;;
41233;SDS011;26968;42.686;23.352;2023-01-13T01:33:23;17.15;;;9.80;;
41233;SDS011;26968;42.686;23.352;2023-01-13T01:35:49;15.75;;;9.30;;
41233;SDS011;26968;42.686;23.352;2023-01-13T01:38:15;14.55;;;8.63;;
41233;SDS011;26968;42.686;23.352;2023-01-13T01:40:40;15.75;;;9.18;;
41233;SDS011;26968;42.686;23.352;2023-01-13T01:43:16;15.32;;;9.40;;
41233;SDS011;26968;42.686;23.352;2023-01-13T01:46:02;16.25;;;9.85;;
41233;SDS011;26968;42.686;23.352;2023-01-13T01:48:28;16.13;;;9.88;;
41233;SDS011;26968;42.686;23.352;2023-01-13T01:50:58;15.38;;;9.57;;
41233;SDS011;26968;42.686;23.352;2023-01-13T01:53:25;15.70;;;9.45;;
41233;SDS011;26968;42.686;23.352;2023-01-13T01:55:53;17.88;;;9.50;;
41233;SDS011;26968;42.686;23.352;2023-01-13T01:58:23;14.38;;;8.63;;
41233;SDS011;26968;42.686;23.352;2023-01-13T02:00:53;16.92;;;8.75;;
41233;SDS011;26968;42.686;23.352;2023-01-13T02:03:18;18.80;;;9.23;;
41233;SDS011;26968;42.686;23.352;2023-01-13T02:05:44;19.80;;;9.48;;
41233;SDS011;26968;42.686;23.352;2023-01-13T02:08:10;17.25;;;9.63;;
41233;SDS011;26968;42.686;23.352;2023-01-13T02:10:37;14.60;;;9.25;;
41233;SDS011;26968;42.686;23.352;2023-01-13T02:13:05;16.90;;;9.63;;
41233;SDS011;26968;42.686;23.352;2023-01-13T02:23:58;12.82;;;8.23;;
41233;SDS011;26968;42.686;23.352;2023-01-13T02:35:51;13.43;;;8.30;;
41233;SDS011;26968;42.686;23.352;2023-01-13T02:38:33;15.70;;;8.70;;
41233;SDS011;26968;42.686;23.352;2023-01-13T02:44:43;13.10;;;8.20;;
41233;SDS011;26968;42.686;23.352;2023-01-13T02:47:22;12.55;;;8.43;;
41233;SDS011;26968;42.686;23.352;2023-01-13T02:50:09;13.68;;;8.90;;
41233;SDS011;26968;42.686;23.352;2023-01-13T02:52:43;14.95;;;8.93;;
41233;SDS011;26968;42.686;23.352;2023-01-13T02:55:15;13.98;;;9.43;;
41233;SDS011;26968;42.686;23.352;2023-01-13T02:57:43;16.25;;;9.15;;
41233;SDS011;26968;42.686;23.352;2023-01-13T03:00:12;13.77;;;8.27;;
41233;SDS011;26968;42.686;23.352;2023-01-13T03:02:39;13.75;;;8.70;;
41233;SDS011;26968;42.686;23.352;2023-01-13T03:05:05;16.40;;;9.55;;
41233;SDS011;26968;42.686;23.352;2023-01-13T03:07:49;16.23;;;9.90;;
41233;SDS011;26968;42.686;23.352;2023-01-13T03:13:13;16.80;;;9.52;;
41233;SDS011;26968;42.686;23.352;2023-01-13T03:15:51;15.73;;;9.27;;
41233;SDS011;26968;42.686;23.352;2023-01-13T03:21:19;14.98;;;9.63;;
41233;SDS011;26968;42.686;23.352;2023-01-13T03:24:00;17.48;;;9.13;;
41233;SDS011;26968;42.686;23.352;2023-01-13T03:26:45;13.20;;;9.15;;
41233;SDS011;26968;42.686;23.352;2023-01-13T03:29:35;17.27;;;9.60;;
41233;SDS011;26968;42.686;23.352;2023-01-13T03:32:10;18.00;;;9.88;;
41233;SDS011;26968;42.686;23.352;2023-01-13T03:34:42;16.20;;;10.00;;
41233;SDS011;26968;42.686;23.352;2023-01-13T03:37:11;14.82;;;9.23;;
41233;SDS011;26968;42.686;23.352;2023-01-13T03:39:39;13.73;;;9.02;;
41233;SDS011;26968;42.686;23.352;2023-01-13T03:42:13;14.32;;;8.93;;
41233;SDS011;26968;42.686;23.352;2023-01-13T03:44:47;13.60;;;8.85;;
41233;SDS011;26968;42.686;23.352;2023-01-13T03:50:14;15.60;;;9.20;;
41233;SDS011;26968;42.686;23.352;2023-01-13T03:52:46;12.68;;;8.45;;
41233;SDS011;26968;42.686;23.352;2023-01-13T03:55:15;13.63;;;8.25;;
41233;SDS011;26968;42.686;23.352;2023-01-13T03:57:54;16.15;;;8.40;;
41233;SDS011;26968;42.686;23.352;2023-01-13T04:00:23;12.95;;;8.43;;
41233;SDS011;26968;42.686;23.352;2023-01-13T04:02:54;13.57;;;7.95;;
41233;SDS011;26968;42.686;23.352;2023-01-13T04:05:25;15.63;;;8.43;;
41233;SDS011;26968;42.686;23.352;2023-01-13T04:08:34;13.20;;;8.43;;
41233;SDS011;26968;42.686;23.352;2023-01-13T04:10:57;12.32;;;8.10;;
41233;SDS011;26968;42.686;23.352;2023-01-13T04:13:25;12.32;;;8.25;;
41233;SDS011;26968;42.686;23.352;2023-01-13T04:15:54;15.45;;;9.70;;
41233;SDS011;26968;42.686;23.352;2023-01-13T04:18:20;11.95;;;8.70;;
41233;SDS011;26968;42.686;23.352;2023-01-13T04:20:49;12.93;;;8.30;;
41233;SDS011;26968;42.686;23.352;2023-01-13T04:23:17;11.55;;;7.97;;
41233;SDS011;26968;42.686;23.352;2023-01-13T04:25:44;11.85;;;7.90;;
41233;SDS011;26968;42.686;23.352;2023-01-13T04:28:11;14.43;;;7.97;;
41233;SDS011;26968;42.686;23.352;2023-01-13T04:30:37;15.60;;;8.50;;
41233;SDS011;26968;42.686;23.352;2023-01-13T04:33:04;11.68;;;7.75;;
41233;SDS011;26968;42.686;23.352;2023-01-13T04:35:30;14.13;;;8.70;;
41233;SDS011;26968;42.686;23.352;2023-01-13T04:37:56;13.60;;;8.10;;
41233;SDS011;26968;42.686;23.352;2023-01-13T04:40:24;12.85;;;7.70;;
41233;SDS011;26968;42.686;23.352;2023-01-13T04:42:49;13.82;;;8.48;;
41233;SDS011;26968;42.686;23.352;2023-01-13T04:45:14;11.57;;;7.35;;
41233;SDS011;26968;42.686;23.352;2023-01-13T04:47:40;12.00;;;8.02;;
41233;SDS011;26968;42.686;23.352;2023-01-13T04:50:06;15.57;;;8.90;;
41233;SDS011;26968;42.686;23.352;2023-01-13T04:52:32;12.65;;;8.35;;
41233;SDS011;26968;42.686;23.352;2023-01-13T04:54:57;27.85;;;8.80;;
41233;SDS011;26968;42.686;23.352;2023-01-13T04:57:23;15.82;;;9.50;;
41233;SDS011;26968;42.686;23.352;2023-01-13T04:59:48;13.65;;;8.55;;
41233;SDS011;26968;42.686;23.352;2023-01-13T05:02:13;17.02;;;8.68;;
41233;SDS011;26968;42.686;23.352;2023-01-13T05:04:44;21.83;;;10.13;;
41233;SDS011;26968;42.686;23.352;2023-01-13T05:07:10;23.73;;;10.68;;
41233;SDS011;26968;42.686;23.352;2023-01-13T05:09:35;15.63;;;10.10;;
41233;SDS011;26968;42.686;23.352;2023-01-13T05:12:01;18.15;;;9.57;;
41233;SDS011;26968;42.686;23.352;2023-01-13T05:14:45;25.55;;;10.57;;
41233;SDS011;26968;42.686;23.352;2023-01-13T05:17:29;25.98;;;10.45;;
41233;SDS011;26968;42.686;23.352;2023-01-13T05:19:56;21.50;;;11.18;;
41233;SDS011;26968;42.686;23.352;2023-01-13T05:22:21;19.02;;;10.70;;
41233;SDS011;26968;42.686;23.352;2023-01-13T05:25:06;20.90;;;10.20;;
41233;SDS011;26968;42.686;23.352;2023-01-13T05:27:53;23.98;;;11.32;;
41233;SDS011;26968;42.686;23.352;2023-01-13T05:30:27;18.33;;;10.20;;
41233;SDS011;26968;42.686;23.352;2023-01-13T05:32:57;26.10;;;10.55;;
41233;SDS011;26968;42.686;23.352;2023-01-13T05:35:24;18.85;;;10.68;;
41233;SDS011;26968;42.686;23.352;2023-01-13T05:37:50;14.55;;;9.07;;
41233;SDS011;26968;42.686;23.352;2023-01-13T05:40:16;22.20;;;10.57;;
41233;SDS011;26968;42.686;23.352;2023-01-13T05:46:00;18.80;;;11.18;;
41233;SDS011;26968;42.686;23.352;2023-01-13T05:48:31;28.30;;;11.38;;
41233;SDS011;26968;42.686;23.352;2023-01-13T05:51:02;23.15;;;12.43;;
41233;SDS011;26968;42.686;23.352;2023-01-13T05:53:29;23.80;;;12.60;;
41233;SDS011;26968;42.686;23.352;2023-01-13T05:55:55;24.88;;;12.35;;
41233;SDS011;26968;42.686;23.352;2023-01-13T05:58:23;18.45;;;11.35;;
41233;SDS011;26968;42.686;23.352;2023-01-13T06:00:49;21.70;;;11.95;;
41233;SDS011;26968;42.686;23.352;2023-01-13T06:03:15;20.05;;;11.55;;
41233;SDS011;26968;42.686;23.352;2023-01-13T06:05:44;22.75;;;13.13;;
41233;SDS011;26968;42.686;23.352;2023-01-13T06:08:11;22.13;;;11.40;;
41233;SDS011;26968;42.686;23.352;2023-01-13T06:10:37;21.35;;;12.82;;
41233;SDS011;26968;42.686;23.352;2023-01-13T06:13:03;20.23;;;12.50;;
41233;SDS011;26968;42.686;23.352;2023-01-13T06:15:29;22.13;;;12.95;;
41233;SDS011;26968;42.686;23.352;2023-01-13T06:17:55;25.00;;;12.88;;
41233;SDS011;26968;42.686;23.352;2023-01-13T06:20:21;20.23;;;12.52;;
41233;SDS011;26968;42.686;23.352;2023-01-13T06:22:48;25.45;;;13.05;;
41233;SDS011;26968;42.686;23.352;2023-01-13T06:27:53;23.08;;;11.80;;
41233;SDS011;26968;42.686;23.352;2023-01-13T06:30:20;28.63;;;13.85;;
41233;SDS011;26968;42.686;23.352;2023-01-13T06:32:47;24.05;;;13.20;;
41233;SDS011;26968;42.686;23.352;2023-01-13T06:35:19;24.67;;;13.45;;
41233;SDS011;26968;42.686;23.352;2023-01-13T06:37:49;36.60;;;14.95;;
41233;SDS011;26968;42.686;23.352;2023-01-13T06:40:18;24.52;;;11.80;;
41233;SDS011;26968;42.686;23.352;2023-01-13T06:42:44;23.30;;;11.88;;
41233;SDS011;26968;42.686;23.352;2023-01-13T06:45:28;29.90;;;14.85;;
41233;SDS011;26968;42.686;23.352;2023-01-13T06:47:55;30.40;;;12.65;;
41233;SDS011;26968;42.686;23.352;2023-01-13T06:50:23;28.80;;;14.25;;
41233;SDS011;26968;42.686;23.352;2023-01-13T06:52:49;40.88;;;13.50;;
41233;SDS011;26968;42.686;23.352;2023-01-13T06:55:14;33.45;;;13.57;;
41233;SDS011;26968;42.686;23.352;2023-01-13T06:57:50;27.42;;;14.00;;
41233;SDS011;26968;42.686;23.352;2023-01-13T07:00:17;28.75;;;14.85;;
41233;SDS011;26968;42.686;23.352;2023-01-13T07:02:43;33.58;;;15.00;;
41233;SDS011;26968;42.686;23.352;2023-01-13T07:05:08;31.02;;;14.65;;
41233;SDS011;26968;42.686;23.352;2023-01-13T07:07:34;30.40;;;15.68;;
41233;SDS011;26968;42.686;23.352;2023-01-13T07:09:59;23.38;;;13.38;;
41233;SDS011;26968;42.686;23.352;2023-01-13T07:12:25;24.80;;;12.23;;
41233;SDS011;26968;42.686;23.352;2023-01-13T07:14:50;27.10;;;12.55;;
41233;SDS011;26968;42.686;23.352;2023-01-13T07:17:34;28.85;;;12.63;;
41233;SDS011;26968;42.686;23.352;2023-01-13T07:19:59;24.27;;;14.40;;
41233;SDS011;26968;42.686;23.352;2023-01-13T07:22:25;19.35;;;10.55;;
41233;SDS011;26968;42.686;23.352;2023-01-13T07:24:50;24.95;;;12.15;;
41233;SDS011;26968;42.686;23.352;2023-01-13T07:27:16;24.80;;;11.38;;
41233;SDS011;26968;42.686;23.352;2023-01-13T07:29:41;25.85;;;12.40;;
41233;SDS011;26968;42.686;23.352;2023-01-13T07:32:07;21.38;;;12.70;;
41233;SDS011;26968;42.686;23.352;2023-01-13T07:34:33;25.98;;;11.60;;
41233;SDS011;26968;42.686;23.352;2023-01-13T07:36:59;29.30;;;11.52;;
41233;SDS011;26968;42.686;23.352;2023-01-13T07:39:24;21.55;;;10.82;;
41233;SDS011;26968;42.686;23.352;2023-01-13T07:41:50;23.98;;;10.55;;
41233;SDS011;26968;42.686;23.352;2023-01-13T07:44:34;22.25;;;10.15;;
41233;SDS011;26968;42.686;23.352;2023-01-13T07:46:59;19.45;;;10.93;;
41233;SDS011;26968;42.686;23.352;2023-01-13T07:49:24;15.70;;;9.13;;
41233;SDS011;26968;42.686;23.352;2023-01-13T07:51:50;18.63;;;10.52;;
41233;SDS011;26968;42.686;23.352;2023-01-13T07:54:15;20.42;;;10.65;;
41233;SDS011;26968;42.686;23.352;2023-01-13T07:56:41;24.38;;;10.15;;
41233;SDS011;26968;42.686;23.352;2023-01-13T07:59:06;29.88;;;12.05;;
41233;SDS011;26968;42.686;23.352;2023-01-13T08:01:31;25.05;;;10.45;;
41233;SDS011;26968;42.686;23.352;2023-01-13T08:03:57;20.35;;;9.85;;
41233;SDS011;26968;42.686;23.352;2023-01-13T08:06:23;36.80;;;11.15;;
41233;SDS011;26968;42.686;23.352;2023-01-13T08:08:49;27.60;;;10.68;;
41233;SDS011;26968;42.686;23.352;2023-01-13T08:11:15;20.45;;;11.23;;
41233;SDS011;26968;42.686;23.352;2023-01-13T08:13:41;23.25;;;12.52;;
41233;SDS011;26968;42.686;23.352;2023-01-13T08:16:07;21.83;;;11.15;;
41233;SDS011;26968;42.686;23.352;2023-01-13T08:18:34;27.33;;;11.23;;
41233;SDS011;26968;42.686;23.352;2023-01-13T08:21:11;23.50;;;11.10;;
41233;SDS011;26968;42.686;23.352;2023-01-13T08:23:39;19.80;;;11.50;;
41233;SDS011;26968;42.686;23.352;2023-01-13T08:26:06;22.73;;;12.15;;
41233;SDS011;26968;42.686;23.352;2023-01-13T08:28:34;23.05;;;12.32;;
41233;SDS011;26968;42.686;23.352;2023-01-13T08:31:03;26.02;;;13.23;;
41233;SDS011;26968;42.686;23.352;2023-01-13T08:33:30;24.60;;;11.35;;
41233;SDS011;26968;42.686;23.352;2023-01-13T08:35:56;31.58;;;12.18;;
41233;SDS011;26968;42.686;23.352;2023-01-13T08:38:22;20.00;;;10.73;;
41233;SDS011;26968;42.686;23.352;2023-01-13T08:40:49;30.65;;;11.30;;
41233;SDS011;26968;42.686;23.352;2023-01-13T08:43:14;26.27;;;11.20;;
41233;SDS011;26968;42.686;23.352;2023-01-13T08:45:40;23.95;;;10.82;;
41233;SDS011;26968;42.686;23.352;2023-01-13T08:48:05;19.52;;;10.95;;
41233;SDS011;26968;42.686;23.352;2023-01-13T08:50:32;23.50;;;11.40;;
41233;SDS011;26968;42.686;23.352;2023-01-13T08:52:58;34.92;;;12.18;;
41233;SDS011;26968;42.686;23.352;2023-01-13T08:55:24;23.00;;;10.70;;
41233;SDS011;26968;42.686;23.352;2023-01-13T08:57:49;17.85;;;10.00;;
41233;SDS011;26968;42.686;23.352;2023-01-13T09:00:15;23.27;;;10.77;;
41233;SDS011;26968;42.686;23.352;2023-01-13T09:02:41;18.73;;;10.77;;
41233;SDS011;26968;42.686;23.352;2023-01-13T09:05:07;24.90;;;11.57;;
41233;SDS011;26968;42.686;23.352;2023-01-13T09:07:34;21.25;;;11.38;;
41233;SDS011;26968;42.686;23.352;2023-01-13T09:10:01;28.35;;;13.25;;
41233;SDS011;26968;42.686;23.352;2023-01-13T09:12:28;32.50;;;13.00;;
41233;SDS011;26968;42.686;23.352;2023-01-13T09:15:12;19.48;;;12.00;;
41233;SDS011;26968;42.686;23.352;2023-01-13T09:17:37;19.98;;;10.00;;
41233;SDS011;26968;42.686;23.352;2023-01-13T09:20:03;18.75;;;8.95;;
41233;SDS011;26968;42.686;23.352;2023-01-13T09:22:29;25.23;;;9.73;;
41233;SDS011;26968;42.686;23.352;2023-01-13T09:24:55;26.00;;;10.57;;
41233;SDS011;26968;42.686;23.352;2023-01-13T09:27:20;19.95;;;9.10;;
41233;SDS011;26968;42.686;23.352;2023-01-13T09:29:46;22.88;;;10.63;;
41233;SDS011;26968;42.686;23.352;2023-01-13T09:32:12;20.63;;;9.75;;
41233;SDS011;26968;42.686;23.352;2023-01-13T09:34:38;26.05;;;9.45;;
41233;SDS011;26968;42.686;23.352;2023-01-13T09:37:23;15.70;;;9.75;;
41233;SDS011;26968;42.686;23.352;2023-01-13T09:39:48;15.70;;;8.30;;
41233;SDS011;26968;42.686;23.352;2023-01-13T09:42:19;19.73;;;9.07;;
41233;SDS011;26968;42.686;23.352;2023-01-13T09:45:13;14.35;;;7.75;;
41233;SDS011;26968;42.686;23.352;2023-01-13T09:48:10;20.15;;;8.05;;
41233;SDS011;26968;42.686;23.352;2023-01-13T09:53:28;19.83;;;8.15;;
41233;SDS011;26968;42.686;23.352;2023-01-13T09:55:56;17.15;;;7.30;;
41233;SDS011;26968;42.686;23.352;2023-01-13T09:58:21;18.88;;;8.13;;
41233;SDS011;26968;42.686;23.352;2023-01-13T10:00:50;17.92;;;7.10;;
41233;SDS011;26968;42.686;23.352;2023-01-13T10:03:34;12.43;;;7.50;;
41233;SDS011;26968;42.686;23.352;2023-01-13T10:08:46;7.82;;;4.68;;
41233;SDS011;26968;42.686;23.352;2023-01-13T10:11:15;7.63;;;4.65;;
41233;SDS011;26968;42.686;23.352;2023-01-13T10:14:04;12.18;;;5.95;;
41233;SDS011;26968;42.686;23.352;2023-01-13T10:16:53;12.48;;;5.68;;
41233;SDS011;26968;42.686;23.352;2023-01-13T10:19:28;16.58;;;6.40;;
41233;SDS011;26968;42.686;23.352;2023-01-13T10:27:26;9.37;;;4.60;;
41233;SDS011;26968;42.686;23.352;2023-01-13T10:30:08;6.40;;;4.15;;
41233;SDS011;26968;42.686;23.352;2023-01-13T10:32:59;8.75;;;5.03;;
41233;SDS011;26968;42.686;23.352;2023-01-13T10:38:23;20.75;;;5.20;;
41233;SDS011;26968;42.686;23.352;2023-01-13T10:40:56;10.18;;;4.78;;
41233;SDS011;26968;42.686;23.352;2023-01-13T10:46:50;9.45;;;4.78;;
41233;SDS011;26968;42.686;23.352;2023-01-13T10:49:29;11.50;;;4.88;;
41233;SDS011;26968;42.686;23.352;2023-01-13T10:51:56;16.65;;;7.03;;
41233;SDS011;26968;42.686;23.352;2023-01-13T10:54:24;11.02;;;4.57;;
41233;SDS011;26968;42.686;23.352;2023-01-13T10:59:47;8.82;;;4.82;;
41233;SDS011;26968;42.686;23.352;2023-01-13T11:15:38;15.07;;;6.68;;
41233;SDS011;26968;42.686;23.352;2023-01-13T11:20:50;15.63;;;6.88;;
41233;SDS011;26968;42.686;23.352;2023-01-13T11:26:01;19.83;;;7.45;;
41233;SDS011;26968;42.686;23.352;2023-01-13T11:36:42;11.73;;;5.55;;
41233;SDS011;26968;42.686;23.352;2023-01-13T11:42:01;9.43;;;3.67;;
41233;SDS011;26968;42.686;23.352;2023-01-13T11:47:35;12.10;;;4.97;;
41233;SDS011;26968;42.686;23.352;2023-01-13T11:50:02;6.80;;;4.47;;
41233;SDS011;26968;42.686;23.352;2023-01-13T12:09:01;14.07;;;6.97;;
41233;SDS011;26968;42.686;23.352;2023-01-13T12:17:16;13.02;;;7.32;;
41233;SDS011;26968;42.686;23.352;2023-01-13T12:19:50;16.23;;;8.38;;
41233;SDS011;26968;42.686;23.352;2023-01-13T12:22:19;14.35;;;8.60;;
41233;SDS011;26968;42.686;23.352;2023-01-13T12:25:02;14.80;;;8.02;;
41233;SDS011;26968;42.686;23.352;2023-01-13T12:27:42;25.15;;;8.73;;
41233;SDS011;26968;42.686;23.352;2023-01-13T12:30:22;23.70;;;8.07;;
41233;SDS011;26968;42.686;23.352;2023-01-13T12:32:53;12.82;;;7.50;;
41233;SDS011;26968;42.686;23.352;2023-01-13T12:35:40;16.73;;;8.13;;
41233;SDS011;26968;42.686;23.352;2023-01-13T12:43:48;14.40;;;6.97;;
41233;SDS011;26968;42.686;23.352;2023-01-13T12:52:00;22.27;;;8.10;;
41233;SDS011;26968;42.686;23.352;2023-01-13T13:00:10;16.58;;;7.38;;
41233;SDS011;26968;42.686;23.352;2023-01-13T13:02:32;11.00;;;6.35;;
41233;SDS011;26968;42.686;23.352;2023-01-13T13:10:36;11.30;;;6.68;;
41233;SDS011;26968;42.686;23.352;2023-01-13T13:13:20;13.27;;;6.55;;
41233;SDS011;26968;42.686;23.352;2023-01-13T13:24:40;17.08;;;7.30;;
41233;SDS011;26968;42.686;23.352;2023-01-13T13:38:45;10.13;;;5.13;;
41233;SDS011;26968;42.686;23.352;2023-01-13T13:41:46;9.23;;;5.43;;
41233;SDS011;26968;42.686;23.352;2023-01-13T13:44:34;11.35;;;6.28;;
41233;SDS011;26968;42.686;23.352;2023-01-13T13:47:24;14.20;;;7.60;;
41233;SDS011;26968;42.686;23.352;2023-01-13T13:50:03;18.73;;;7.40;;
41233;SDS011;26968;42.686;23.352;2023-01-13T13:52:37;14.48;;;8.00;;
41233;SDS011;26968;42.686;23.352;2023-01-13T13:55:16;12.55;;;7.47;;
41233;SDS011;26968;42.686;23.352;2023-01-13T13:57:45;12.50;;;6.80;;
41233;SDS011;26968;42.686;23.352;2023-01-13T14:02:49;15.05;;;7.90;;
41233;SDS011;26968;42.686;23.352;2023-01-13T14:05:28;14.40;;;7.13;;
41233;SDS011;26968;42.686;23.352;2023-01-13T14:10:29;14.10;;;7.68;;
41233;SDS011;26968;42.686;23.352;2023-01-13T14:12:58;22.08;;;7.25;;
41233;SDS011;26968;42.686;23.352;2023-01-13T14:15:25;16.20;;;7.95;;
41233;SDS011;26968;42.686;23.352;2023-01-13T14:17:51;15.50;;;7.88;;
41233;SDS011;26968;42.686;23.352;2023-01-13T14:20:17;26.80;;;8.45;;
41233;SDS011;26968;42.686;23.352;2023-01-13T14:22:46;19.05;;;7.88;;
41233;SDS011;26968;42.686;23.352;2023-01-13T14:25:26;22.23;;;8.98;;
41233;SDS011;26968;42.686;23.352;2023-01-13T14:27:54;31.27;;;10.20;;
41233;SDS011;26968;42.686;23.352;2023-01-13T14:30:25;24.02;;;10.07;;
41233;SDS011;26968;42.686;23.352;2023-01-13T14:32:52;19.48;;;9.15;;
41233;SDS011;26968;42.686;23.352;2023-01-13T14:35:19;24.60;;;10.05;;
41233;SDS011;26968;42.686;23.352;2023-01-13T14:37:50;52.67;;;13.43;;
41233;SDS011;26968;42.686;23.352;2023-01-13T14:43:00;27.45;;;9.68;;
41233;SDS011;26968;42.686;23.352;2023-01-13T14:45:28;48.20;;;13.48;;
41233;SDS011;26968;42.686;23.352;2023-01-13T14:47:57;108.30;;;33.15;;
41233;SDS011;26968;42.686;23.352;2023-01-13T14:50:25;23.05;;;11.48;;
41233;SDS011;26968;42.686;23.352;2023-01-13T14:58:39;18.58;;;9.75;;
41233;SDS011;26968;42.686;23.352;2023-01-13T15:00:42;23.52;;;11.15;;
41233;SDS011;26968;42.686;23.352;2023-01-13T15:03:12;23.98;;;10.88;;
41233;SDS011;26968;42.686;23.352;2023-01-13T15:05:39;25.27;;;12.00;;
41233;SDS011;26968;42.686;23.352;2023-01-13T15:11:03;31.38;;;14.50;;
41233;SDS011;26968;42.686;23.352;2023-01-13T15:13:46;25.80;;;11.38;;
41233;SDS011;26968;42.686;23.352;2023-01-13T15:16:26;24.83;;;13.73;;
41233;SDS011;26968;42.686;23.352;2023-01-13T15:18:53;25.52;;;12.10;;
41233;SDS011;26968;42.686;23.352;2023-01-13T15:21:20;24.33;;;11.73;;
41233;SDS011;26968;42.686;23.352;2023-01-13T15:23:45;22.02;;;10.77;;
41233;SDS011;26968;42.686;23.352;2023-01-13T15:26:25;28.17;;;12.95;;
41233;SDS011;26968;42.686;23.352;2023-01-13T15:28:53;22.60;;;11.67;;
41233;SDS011;26968;42.686;23.352;2023-01-13T15:31:20;29.67;;;12.48;;
41233;SDS011;26968;42.686;23.352;2023-01-13T15:33:47;21.50;;;11.77;;
41233;SDS011;26968;42.686;23.352;2023-01-13T15:36:31;35.58;;;15.48;;
41233;SDS011;26968;42.686;23.352;2023-01-13T15:38:58;27.05;;;13.10;;
41233;SDS011;26968;42.686;23.352;2023-01-13T15:41:25;24.55;;;11.90;;
41233;SDS011;26968;42.686;23.352;2023-01-13T15:44:12;20.73;;;10.10;;
41233;SDS011;26968;42.686;23.352;2023-01-13T15:46:59;20.25;;;11.38;;
41233;SDS011;26968;42.686;23.352;2023-01-13T15:49:41;30.05;;;13.30;;
41233;SDS011;26968;42.686;23.352;2023-01-13T15:52:19;32.08;;;11.93;;
41233;SDS011;26968;42.686;23.352;2023-01-13T15:54:45;28.10;;;13.07;;
41233;SDS011;26968;42.686;23.352;2023-01-13T15:57:22;22.50;;;11.60;;
41233;SDS011;26968;42.686;23.352;2023-01-13T15:59:49;20.70;;;10.85;;
41233;SDS011;26968;42.686;23.352;2023-01-13T16:02:17;26.73;;;11.85;;
41233;SDS011;26968;42.686;23.352;2023-01-13T16:04:46;24.65;;;12.45;;
41233;SDS011;26968;42.686;23.352;2023-01-13T16:07:16;34.45;;;13.10;;
41233;SDS011;26968;42.686;23.352;2023-01-13T16:09:43;36.17;;;13.90;;
41233;SDS011;26968;42.686;23.352;2023-01-13T16:12:09;34.17;;;14.10;;
41233;SDS011;26968;42.686;23.352;2023-01-13T16:14:35;38.55;;;17.23;;
41233;SDS011;26968;42.686;23.352;2023-01-13T16:17:02;30.52;;;13.88;;
41233;SDS011;26968;42.686;23.352;2023-01-13T16:19:36;31.38;;;14.82;;
41233;SDS011;26968;42.686;23.352;2023-01-13T16:22:01;30.20;;;13.43;;
41233;SDS011;26968;42.686;23.352;2023-01-13T16:24:30;39.30;;;14.63;;
41233;SDS011;26968;42.686;23.352;2023-01-13T16:26:57;35.83;;;13.13;;
41233;SDS011;26968;42.686;23.352;2023-01-13T16:29:22;33.50;;;14.15;;
41233;SDS011;26968;42.686;23.352;2023-01-13T16:31:47;26.98;;;12.77;;
41233;SDS011;26968;42.686;23.352;2023-01-13T16:34:13;31.27;;;15.07;;
41233;SDS011;26968;42.686;23.352;2023-01-13T16:36:48;30.42;;;13.77;;
41233;SDS011;26968;42.686;23.352;2023-01-13T16:39:20;39.55;;;17.73;;
41233;SDS011;26968;42.686;23.352;2023-01-13T16:41:47;40.10;;;18.85;;
41233;SDS011;26968;42.686;23.352;2023-01-13T16:44:13;41.53;;;19.85;;
41233;SDS011;26968;42.686;23.352;2023-01-13T16:46:39;59.28;;;22.23;;
41233;SDS011;26968;42.686;23.352;2023-01-13T16:49:05;46.58;;;20.83;;
41233;SDS011;26968;42.686;23.352;2023-01-13T16:51:31;51.88;;;21.08;;
41233;SDS011;26968;42.686;23.352;2023-01-13T16:53:57;51.13;;;21.20;;
41233;SDS011;26968;42.686;23.352;2023-01-13T16:56:25;51.47;;;22.95;;
41233;SDS011;26968;42.686;23.352;2023-01-13T16:58:53;47.65;;;23.10;;
41233;SDS011;26968;42.686;23.352;2023-01-13T17:01:25;59.25;;;24.55;;
41233;SDS011;26968;42.686;23.352;2023-01-13T17:06:19;55.65;;;21.17;;
41233;SDS011;26968;42.686;23.352;2023-01-13T17:09:07;47.15;;;19.70;;
41233;SDS011;26968;42.686;23.352;2023-01-13T17:11:38;46.60;;;20.05;;
41233;SDS011;26968;42.686;23.352;2023-01-13T17:14:04;43.97;;;18.88;;
41233;SDS011;26968;42.686;23.352;2023-01-13T17:16:31;46.22;;;17.13;;
41233;SDS011;26968;42.686;23.352;2023-01-13T17:18:58;46.25;;;16.83;;
41233;SDS011;26968;42.686;23.352;2023-01-13T17:21:23;41.08;;;18.73;;
41233;SDS011;26968;42.686;23.352;2023-01-13T17:23:49;39.88;;;17.10;;
41233;SDS011;26968;42.686;23.352;2023-01-13T17:28:57;35.63;;;16.00;;
41233;SDS011;26968;42.686;23.352;2023-01-13T17:31:23;42.65;;;17.33;;
41233;SDS011;26968;42.686;23.352;2023-01-13T17:33:49;44.65;;;16.63;;